Time;durP1;ratioP1;P1;durP2;ratioP2;P2;SDS_P1;SDS_P2;PMS_P1;PMS_P2;Temp;Humidity;BMP_temperature;BMP_pressure;BME280_temperature;BME280_humidity;BME280_pressure;Samples;Min_cycle;Max_cycle;Signal;HPM_P1;HPM_P2
2024/01/26 00:02:20;;;;;;;;;1.67;1.67;;;;;20.93;47.53;102433.03;6338383;22;45298;-75
2024/01/26 00:04:45;;;;;;;;;1.00;0.67;;;;;21.02;47.36;102439.38;6366925;22;50460;-75
2024/01/26 00:07:10;;;;;;;;;1.33;1.33;;;;;21.06;47.72;102446.06;6367273;22;45213;-74
2024/01/26 00:09:35;;;;;;;;;1.67;1.67;;;;;21.06;47.58;102448.72;6366608;22;45993;-76
2024/01/26 00:12:01;;;;;;;;;4.00;2.33;;;;;20.91;47.04;102427.91;6367258;22;45251;-75
2024/01/26 00:14:26;;;;;;;;;1.00;1.00;;;;;21.01;47.23;102435.91;6367085;22;45314;-75
2024/01/26 00:16:52;;;;;;;;;2.67;2.00;;;;;20.94;47.58;102432.09;6366996;22;45406;-75
2024/01/26 00:19:17;;;;;;;;;1.00;1.00;;;;;21.04;47.04;102448.03;6366689;22;46163;-75
2024/01/26 00:21:42;;;;;;;;;2.67;1.67;;;;;21.04;47.17;102448.88;6367768;22;45328;-74
2024/01/26 00:24:08;;;;;;;;;1.33;1.33;;;;;20.94;46.99;102434.72;6368867;22;45236;-76
2024/01/26 00:26:33;;;;;;;;;1.00;1.00;;;;;21.05;46.81;102439.94;6368454;22;45315;-74
2024/01/26 00:28:59;;;;;;;;;3.33;2.00;;;;;20.92;46.95;102412.88;6368504;22;45955;-75
2024/01/26 00:31:24;;;;;;;;;3.00;3.00;;;;;21.04;46.92;102432.97;6367764;22;45198;-75
2024/01/26 00:33:49;;;;;;;;;2.67;0.33;;;;;21.03;46.89;102420.72;6368414;22;45079;-75
2024/01/26 00:36:15;;;;;;;;;2.33;1.67;;;;;21.03;47.24;102426.00;6368627;22;45310;-75
2024/01/26 00:38:41;;;;;;;;;2.00;2.00;;;;;21.02;47.06;102426.16;6367309;22;47108;-76
2024/01/26 00:41:07;;;;;;;;;1.67;1.33;;;;;20.84;47.20;102393.19;6368127;22;45135;-75
2024/01/26 00:43:32;;;;;;;;;3.00;2.33;;;;;20.88;47.56;102403.50;6368357;22;45305;-75
2024/01/26 00:45:57;;;;;;;;;2.33;1.33;;;;;20.96;47.56;102417.75;6368709;22;45523;-76
2024/01/26 00:48:23;;;;;;;;;2.00;2.00;;;;;20.93;47.34;102401.28;6368211;22;46162;-75
2024/01/26 00:50:50;;;;;;;;;2.00;2.00;;;;;20.82;47.04;102381.91;6367901;22;45241;-75
2024/01/26 00:53:18;;;;;;;;;3.00;3.00;;;;;20.97;47.68;102408.00;6367924;22;45304;-75
2024/01/26 00:55:44;;;;;;;;;3.67;2.33;;;;;21.02;46.96;102407.63;6368678;22;45320;-76
2024/01/26 00:58:09;;;;;;;;;2.00;1.67;;;;;20.98;47.11;102396.44;6368490;22;46344;-76
2024/01/26 01:00:35;;;;;;;;;2.33;2.33;;;;;20.93;47.26;102380.13;6367984;22;45780;-76
2024/01/26 01:03:00;;;;;;;;;3.33;1.67;;;;;20.92;47.22;102371.34;6368423;22;45780;-75
2024/01/26 01:05:25;;;;;;;;;2.33;2.33;;;;;21.02;47.25;102378.53;6367727;22;55599;-75
2024/01/26 01:07:51;;;;;;;;;1.67;1.67;;;;;20.84;47.12;102347.41;6367862;22;45259;-76
2024/01/26 01:10:16;;;;;;;;;3.33;3.33;;;;;20.97;46.78;102365.66;6367982;22;47890;-76
2024/01/26 01:12:42;;;;;;;;;3.00;1.00;;;;;20.90;47.46;102354.78;6368614;22;45213;-74
2024/01/26 01:15:11;;;;;;;;;3.67;2.33;;;;;20.88;47.18;102353.25;6368175;22;45331;-75
2024/01/26 01:17:42;;;;;;;;;1.67;1.67;;;;;20.89;47.33;102354.94;6368485;22;45261;-75
2024/01/26 01:20:08;;;;;;;;;2.33;2.00;;;;;21.00;47.45;102383.09;6367925;22;45225;-75
2024/01/26 01:22:37;;;;;;;;;1.67;1.67;;;;;20.82;47.26;102358.09;6367651;22;45119;-75
2024/01/26 01:25:04;;;;;;;;;2.67;1.33;;;;;20.92;47.00;102366.06;6368617;22;45453;-75
2024/01/26 01:27:31;;;;;;;;;2.00;2.00;;;;;21.00;47.21;102378.59;6368210;22;46359;-75
2024/01/26 01:29:57;;;;;;;;;2.67;2.67;;;;;20.94;47.14;102372.06;6367491;22;45285;-76
2024/01/26 01:32:22;;;;;;;;;2.00;2.00;;;;;20.81;46.98;102345.88;6368349;22;45267;-75
2024/01/26 01:34:47;;;;;;;;;3.00;3.00;;;;;20.99;47.40;102366.38;6368022;22;45316;-76
2024/01/26 01:37:12;;;;;;;;;3.33;2.00;;;;;20.95;47.33;102360.50;6367404;22;59105;-75
2024/01/26 01:39:38;;;;;;;;;2.33;1.67;;;;;20.92;47.33;102358.13;6368392;22;45209;-75
2024/01/26 01:42:03;;;;;;;;;4.33;2.67;;;;;20.99;47.12;102357.59;6368065;22;45251;-75
2024/01/26 01:44:29;;;;;;;;;3.67;2.67;;;;;20.86;47.50;102332.22;6368077;22;45487;-76
2024/01/26 01:46:54;;;;;;;;;3.33;2.67;;;;;21.00;46.92;102353.97;6368340;22;45349;-75
2024/01/26 01:49:22;;;;;;;;;3.33;3.33;;;;;20.83;47.25;102322.75;6368082;22;45212;-75
2024/01/26 01:51:50;;;;;;;;;4.00;1.00;;;;;20.99;46.99;102350.50;6367688;22;45237;-75
2024/01/26 01:54:18;;;;;;;;;1.33;1.33;;;;;21.00;47.08;102361.91;6367391;22;45172;-76
2024/01/26 01:56:44;;;;;;;;;2.67;2.67;;;;;20.93;47.00;102335.16;6368455;22;46516;-75
2024/01/26 01:59:09;;;;;;;;;2.33;2.33;;;;;20.99;47.08;102347.84;6368193;22;45343;-75
2024/01/26 02:01:35;;;;;;;;;3.00;1.67;;;;;20.98;47.38;102346.16;6368270;22;45387;-75
2024/01/26 02:04:02;;;;;;;;;2.33;2.00;;;;;20.99;47.07;102349.66;6368148;22;45457;-76
2024/01/26 02:06:28;;;;;;;;;3.33;3.33;;;;;20.93;47.10;102320.13;6367389;22;47461;-76
2024/01/26 02:08:53;;;;;;;;;3.33;2.33;;;;;20.90;46.81;102311.59;6368015;22;45332;-76
2024/01/26 02:11:18;;;;;;;;;3.00;1.33;;;;;20.97;46.87;102328.63;6368232;22;45242;-75
2024/01/26 02:13:44;;;;;;;;;1.00;1.00;;;;;20.98;46.93;102321.50;6339494;22;45412;-75
2024/01/26 02:16:09;;;;;;;;;1.67;1.67;;;;;20.81;46.88;102303.53;6368391;22;46092;-75
2024/01/26 02:18:35;;;;;;;;;1.00;1.00;;;;;20.98;47.20;102321.50;6367503;22;45284;-75
2024/01/26 02:21:01;;;;;;;;;2.33;1.33;;;;;20.87;47.11;102314.53;6367517;22;45331;-76
2024/01/26 02:23:26;;;;;;;;;3.00;3.00;;;;;20.98;46.85;102326.78;6367915;22;45383;-75
2024/01/26 02:25:52;;;;;;;;;3.00;3.00;;;;;20.94;47.14;102302.44;6367447;22;46135;-75
2024/01/26 02:28:17;;;;;;;;;3.67;2.00;;;;;20.96;46.93;102309.25;6367245;22;45322;-75
2024/01/26 02:30:42;;;;;;;;;2.67;2.67;;;;;20.82;46.92;102270.81;6368329;22;45369;-75
2024/01/26 02:33:08;;;;;;;;;3.67;0.67;;;;;20.88;47.07;102281.81;6367855;22;45224;-75
2024/01/26 02:35:33;;;;;;;;;0.67;0.67;;;;;20.97;47.10;102312.75;6339021;22;46906;-76
2024/01/26 02:37:58;;;;;;;;;1.67;1.67;;;;;20.94;47.17;102295.34;6367421;22;47284;-75
2024/01/26 02:40:24;;;;;;;;;2.67;2.67;;;;;20.91;47.08;102292.97;6368140;22;45150;-74
2024/01/26 02:42:49;;;;;;;;;0.67;0.67;;;;;20.88;47.17;102280.00;6367991;22;52397;-74
2024/01/26 02:45:14;;;;;;;;;2.00;2.00;;;;;20.96;47.15;102282.81;6367645;22;46066;-75
2024/01/26 02:47:40;;;;;;;;;3.33;1.00;;;;;20.94;47.07;102275.97;6366752;22;45293;-78
2024/01/26 02:50:06;;;;;;;;;2.67;2.67;;;;;20.81;47.27;102270.94;6368140;22;45272;-75
2024/01/26 02:52:31;;;;;;;;;3.00;3.00;;;;;20.96;46.79;102287.25;6367571;22;45795;-76
2024/01/26 02:54:57;;;;;;;;;2.00;2.00;;;;;20.95;47.18;102302.28;6368130;22;45282;-74
2024/01/26 02:57:22;;;;;;;;;0.67;0.67;;;;;20.95;47.02;102294.34;6366898;22;61547;-75
2024/01/26 02:59:48;;;;;;;;;4.00;4.00;;;;;20.92;46.50;102291.16;6367734;22;45240;-75
2024/01/26 03:02:13;;;;;;;;;2.33;2.33;;;;;20.96;47.01;102290.75;6367790;22;45359;-75
2024/01/26 03:04:39;;;;;;;;;2.00;2.00;;;;;20.83;46.53;102269.84;6367787;22;46934;-75
2024/01/26 03:07:04;;;;;;;;;3.00;2.00;;;;;20.93;46.67;102284.88;6367573;22;52775;-75
2024/01/26 03:09:29;;;;;;;;;4.33;2.33;;;;;20.94;47.13;102281.28;6366379;22;45632;-75
2024/01/26 03:11:54;;;;;;;;;1.00;1.00;;;;;20.91;46.53;102278.91;6367041;22;53506;-75
2024/01/26 03:14:20;;;;;;;;;3.00;3.00;;;;;20.98;47.08;102281.81;6367968;22;45213;-75
2024/01/26 03:16:45;;;;;;;;;0.00;0.00;;;;;20.86;46.94;102258.16;6366996;22;45147;-74
2024/01/26 03:19:11;;;;;;;;;3.67;2.00;;;;;20.97;46.75;102278.34;6368140;22;45319;-75
2024/01/26 03:21:45;;;;;;;;;1.33;1.33;;;;;20.98;46.72;102273.88;6339204;22;45256;-75
2024/01/26 03:24:11;;;;;;;;;4.67;2.67;;;;;20.77;47.09;102238.63;6367779;22;46281;-75
2024/01/26 03:26:37;;;;;;;;;2.00;2.00;;;;;20.98;47.14;102266.78;6367441;22;45303;-75
2024/01/26 03:29:03;;;;;;;;;1.00;1.00;;;;;20.98;46.92;102269.44;6367599;22;45235;-75
2024/01/26 03:31:29;;;;;;;;;2.33;2.33;;;;;20.93;46.65;102266.34;6367190;22;45432;-76
2024/01/26 03:33:54;;;;;;;;;1.67;1.67;;;;;20.98;47.23;102277.38;6367634;22;46051;-76
2024/01/26 03:36:19;;;;;;;;;0.67;0.67;;;;;20.98;47.20;102271.22;6367467;22;45333;-76
2024/01/26 03:38:45;;;;;;;;;1.33;1.33;;;;;20.84;46.81;102247.69;6367725;22;45618;-75
2024/01/26 03:41:10;;;;;;;;;1.33;1.33;;;;;20.88;46.91;102258.00;6367730;22;45173;-75
2024/01/26 03:43:36;;;;;;;;;1.33;1.33;;;;;20.84;46.87;102252.97;6367590;22;45270;-75
2024/01/26 03:46:08;;;;;;;;;1.67;1.67;;;;;20.80;46.81;102243.66;6367381;22;45303;-76
2024/01/26 03:48:33;;;;;;;;;1.00;1.00;;;;;20.84;47.13;102249.53;6366542;22;45352;-76
2024/01/26 03:50:59;;;;;;;;;3.00;1.67;;;;;20.93;46.68;102274.28;6367689;22;45339;-75
2024/01/26 03:53:24;;;;;;;;;1.67;1.67;;;;;20.95;47.29;102270.53;6367576;22;45405;-75
2024/01/26 03:55:54;;;;;;;;;1.33;1.33;;;;;20.92;46.80;102270.81;6338044;22;45299;-75
2024/01/26 03:58:21;;;;;;;;;2.33;2.00;;;;;20.95;46.89;102275.81;6367396;22;45487;-75
2024/01/26 04:00:46;;;;;;;;;1.00;1.00;;;;;20.96;47.06;102276.66;6367107;22;45669;-76
2024/01/26 04:03:11;;;;;;;;;3.00;1.00;;;;;20.94;46.90;102274.19;6367592;22;45864;-75
2024/01/26 04:05:37;;;;;;;;;2.33;1.33;;;;;20.94;47.08;102268.03;6338777;22;45408;-75
2024/01/26 04:08:03;;;;;;;;;0.67;0.67;;;;;20.95;46.92;102272.34;6367618;22;45218;-75
2024/01/26 04:10:29;;;;;;;;;0.67;0.67;;;;;20.84;46.70;102250.34;6366940;22;45285;-75
2024/01/26 04:12:55;;;;;;;;;3.00;3.00;;;;;20.90;46.66;102270.13;6366874;22;45896;-75
2024/01/26 04:15:21;;;;;;;;;3.67;3.00;;;;;20.90;46.97;102269.28;6366528;22;45328;-75
2024/01/26 04:17:46;;;;;;;;;1.67;1.67;;;;;20.88;47.14;102261.50;6366734;22;45275;-75
2024/01/26 04:20:11;;;;;;;;;1.33;0.67;;;;;20.95;46.84;102286.41;6367135;22;51025;-75
2024/01/26 04:22:36;;;;;;;;;1.67;1.67;;;;;20.95;46.96;102283.75;6366744;22;46239;-75
2024/01/26 04:25:02;;;;;;;;;1.67;1.67;;;;;20.93;47.16;102282.22;6366972;22;50221;-76
2024/01/26 04:27:27;;;;;;;;;2.67;1.67;;;;;20.93;47.16;102276.94;6367488;22;45299;-76
2024/01/26 04:29:53;;;;;;;;;1.67;1.67;;;;;20.85;46.86;102275.81;6365877;22;50800;-76
2024/01/26 04:32:18;;;;;;;;;2.00;2.00;;;;;20.96;46.68;102288.09;6366812;22;46911;-76
2024/01/26 04:34:45;;;;;;;;;1.00;1.00;;;;;20.83;46.96;102263.72;6367287;22;45213;-74
2024/01/26 04:37:10;;;;;;;;;2.00;1.67;;;;;20.96;46.50;102288.09;6366838;22;45252;-76
2024/01/26 04:39:35;;;;;;;;;0.67;0.67;;;;;20.88;47.01;102289.75;6366929;22;45321;-75
2024/01/26 04:42:01;;;;;;;;;1.00;1.00;;;;;20.94;46.97;102276.81;6367089;22;46267;-76
2024/01/26 04:44:26;;;;;;;;;1.67;1.67;;;;;20.98;46.77;102289.75;6366223;22;45154;-74
2024/01/26 04:46:54;;;;;;;;;1.67;1.00;;;;;20.97;47.00;102294.22;6366861;22;45293;-75
2024/01/26 04:49:20;;;;;;;;;2.33;2.33;;;;;20.91;46.97;102269.16;6366341;22;45457;-75
2024/01/26 04:51:45;;;;;;;;;3.67;2.00;;;;;20.96;46.79;102266.94;6366824;22;45375;-76
2024/01/26 04:54:10;;;;;;;;;1.00;0.67;;;;;20.90;46.89;102264.81;6367189;22;45304;-76
2024/01/26 04:56:36;;;;;;;;;2.67;1.67;;;;;20.90;46.60;102258.69;6366865;22;45348;-74
2024/01/26 04:59:02;;;;;;;;;3.67;3.33;;;;;20.96;46.73;102280.16;6366847;22;45304;-77
2024/01/26 05:01:28;;;;;;;;;3.33;2.67;;;;;20.96;46.92;102295.19;6366257;22;46166;-75
2024/01/26 05:03:54;;;;;;;;;1.00;1.00;;;;;20.81;46.97;102255.06;6366509;22;45334;-76
2024/01/26 05:06:19;;;;;;;;;1.33;1.00;;;;;20.92;46.57;102299.09;6366282;22;45292;-75
2024/01/26 05:08:44;;;;;;;;;0.67;0.67;;;;;20.89;47.10;102267.63;6368104;22;45583;-75
2024/01/26 05:11:10;;;;;;;;;3.33;2.00;;;;;20.83;46.82;102256.63;6367025;22;59054;-75
2024/01/26 05:13:35;;;;;;;;;2.67;2.67;;;;;20.97;47.18;102286.28;6368122;22;45284;-75
2024/01/26 05:16:00;;;;;;;;;2.00;2.00;;;;;20.96;46.65;102268.72;6339912;22;50962;-76
2024/01/26 05:18:27;;;;;;;;;3.33;2.00;;;;;20.96;46.64;102268.72;6368338;22;45412;-75
2024/01/26 05:20:52;;;;;;;;;3.67;2.67;;;;;20.96;46.93;102271.38;6367684;22;46133;-75
2024/01/26 05:23:17;;;;;;;;;3.33;3.00;;;;;20.96;46.95;102269.56;6368056;22;45402;-76
2024/01/26 05:25:45;;;;;;;;;3.33;1.00;;;;;20.93;46.74;102258.41;6368171;22;45229;-76
2024/01/26 05:28:10;;;;;;;;;2.00;2.00;;;;;20.96;46.60;102258.16;6367922;22;45379;-75
2024/01/26 05:30:35;;;;;;;;;1.67;1.67;;;;;20.86;46.72;102244.91;6367770;22;46134;-76
2024/01/26 05:33:01;;;;;;;;;0.67;0.67;;;;;20.95;46.98;102265.25;6368031;22;54106;-75
2024/01/26 05:35:26;;;;;;;;;1.67;1.67;;;;;20.61;46.83;102202.13;6368052;22;45281;-75
2024/01/26 05:37:51;;;;;;;;;1.00;1.00;;;;;20.91;46.69;102255.91;6368449;22;45361;-75
2024/01/26 05:40:17;;;;;;;;;2.00;2.00;;;;;20.93;46.86;102264.56;6367558;22;46873;-75
2024/01/26 05:42:42;;;;;;;;;2.67;1.67;;;;;20.96;47.12;102276.66;6366972;22;51658;-75
2024/01/26 05:45:08;;;;;;;;;1.00;1.00;;;;;20.92;47.30;102264.69;6367579;22;59064;-76
2024/01/26 05:47:33;;;;;;;;;1.00;1.00;;;;;20.92;46.83;102270.00;6368734;22;45419;-75
2024/01/26 05:49:59;;;;;;;;;1.67;1.67;;;;;20.96;47.05;102282.81;6367699;22;45230;-76
2024/01/26 05:52:24;;;;;;;;;1.33;0.67;;;;;20.97;46.93;102286.28;6367907;22;45256;-75
2024/01/26 05:54:49;;;;;;;;;2.00;2.00;;;;;20.77;46.84;102246.56;6368517;22;45259;-75
2024/01/26 05:57:15;;;;;;;;;1.67;1.67;;;;;20.98;46.78;102287.09;6367722;22;45455;-75
2024/01/26 05:59:42;;;;;;;;;1.67;1.00;;;;;20.98;46.78;102292.41;6339443;22;47891;-75
2024/01/26 06:02:07;;;;;;;;;2.67;2.00;;;;;20.99;47.02;102296.72;6367636;22;45321;-75
2024/01/26 06:04:32;;;;;;;;;1.00;1.00;;;;;20.92;47.21;102294.63;6367798;22;45985;-75
2024/01/26 06:06:59;;;;;;;;;1.00;1.00;;;;;20.97;47.13;102312.75;6367857;22;45452;-75
2024/01/26 06:09:25;;;;;;;;;3.00;2.00;;;;;20.96;46.96;102311.91;6367244;22;46815;-75
2024/01/26 06:11:50;;;;;;;;;3.00;1.00;;;;;20.96;46.92;102303.13;6367546;22;45353;-75
2024/01/26 06:14:16;;;;;;;;;1.33;1.33;;;;;20.89;47.14;102294.06;6368398;22;45218;-74
2024/01/26 06:16:41;;;;;;;;;1.00;1.00;;;;;20.87;47.02;102299.47;6367709;22;45412;-75
2024/01/26 06:19:06;;;;;;;;;1.33;1.33;;;;;20.96;46.74;102324.28;6366741;22;60618;-76
2024/01/26 06:21:31;;;;;;;;;1.67;1.67;;;;;20.66;46.72;102273.97;6367512;22;45281;-75
2024/01/26 06:23:57;;;;;;;;;1.67;1.67;;;;;20.81;47.14;102314.13;6367787;22;45343;-75
2024/01/26 06:26:23;;;;;;;;;0.67;0.67;;;;;20.95;46.74;102341.13;6339195;22;45475;-75
2024/01/26 06:28:49;;;;;;;;;3.67;1.67;;;;;20.98;47.18;102318.84;6366924;22;46792;-75
2024/01/26 06:31:14;;;;;;;;;1.67;1.67;;;;;20.88;47.09;102324.13;6367928;22;45411;-75
2024/01/26 06:33:39;;;;;;;;;1.67;0.33;;;;;20.99;47.10;102344.34;6368200;22;45381;-74
2024/01/26 06:36:04;;;;;;;;;3.00;1.00;;;;;20.98;47.00;102354.09;6367607;22;45477;-75
2024/01/26 06:38:30;;;;;;;;;2.67;2.67;;;;;20.97;46.94;102357.72;6367505;22;46214;-75
2024/01/26 06:40:57;;;;;;;;;1.67;1.67;;;;;20.97;46.81;102360.38;6367595;22;45245;-75
2024/01/26 06:43:23;;;;;;;;;1.00;1.00;;;;;20.96;47.07;102367.47;6366760;22;45303;-75
2024/01/26 06:45:48;;;;;;;;;1.67;1.67;;;;;20.98;46.90;102375.25;6367816;22;45282;-79
2024/01/26 06:48:13;;;;;;;;;2.00;0.33;;;;;20.94;46.70;102369.44;6366747;22;46576;-78
2024/01/26 06:50:39;;;;;;;;;1.33;1.00;;;;;20.98;47.29;102377.06;6367785;22;45376;-74
2024/01/26 06:53:04;;;;;;;;;0.67;0.67;;;;;20.84;46.87;102356.16;6366696;22;52501;-78
2024/01/26 06:55:29;;;;;;;;;2.33;1.67;;;;;21.00;47.48;102372.50;6369087;22;45237;-79
2024/01/26 06:57:55;;;;;;;;;2.00;2.00;;;;;21.00;47.20;102378.59;6368319;22;46437;-76
2024/01/26 07:00:20;;;;;;;;;1.33;1.33;;;;;21.00;47.24;102383.91;6367640;22;45325;-77
2024/01/26 07:02:45;;;;;;;;;2.00;2.00;;;;;20.87;47.42;102362.16;6368623;22;45247;-79
2024/01/26 07:05:11;;;;;;;;;1.67;1.33;;;;;21.02;47.63;102395.25;6367626;22;45311;-74
2024/01/26 07:07:36;;;;;;;;;2.00;2.00;;;;;21.02;47.53;102391.75;6367264;22;45241;-74
2024/01/26 07:10:02;;;;;;;;;2.33;1.00;;;;;20.98;47.37;102383.19;6366828;22;45358;-74
2024/01/26 07:12:27;;;;;;;;;0.67;0.67;;;;;21.02;47.38;102399.69;6367885;22;45272;-75
2024/01/26 07:14:52;;;;;;;;;1.33;1.33;;;;;20.86;47.18;102379.84;6366756;22;65718;-77
2024/01/26 07:17:18;;;;;;;;;2.67;2.00;;;;;21.03;47.53;102406.63;6367977;22;45287;-77
2024/01/26 07:19:43;;;;;;;;;2.00;2.00;;;;;20.86;47.43;102379.84;6367648;22;45360;-76
2024/01/26 07:22:09;;;;;;;;;2.67;1.00;;;;;20.95;47.13;102394.06;6365698;22;45299;-75
2024/01/26 07:24:34;;;;;;;;;1.33;1.33;;;;;21.03;47.52;102412.78;6367094;22;45414;-74
2024/01/26 07:26:59;;;;;;;;;1.67;1.67;;;;;20.95;47.68;102415.22;6366817;22;46068;-74
2024/01/26 07:29:25;;;;;;;;;1.33;1.33;;;;;21.04;47.20;102430.34;6366633;22;45240;-75
2024/01/26 07:31:50;;;;;;;;;1.00;1.00;;;;;21.02;47.64;102428.78;6367699;22;45200;-74
2024/01/26 07:34:16;;;;;;;;;1.00;1.00;;;;;21.00;47.18;102425.41;6367133;22;45244;-75
2024/01/26 07:36:41;;;;;;;;;2.33;1.67;;;;;20.95;47.71;102424.00;6367230;22;45491;-74
2024/01/26 07:39:07;;;;;;;;;1.33;0.67;;;;;21.04;47.44;102448.88;6366080;22;45267;-76
2024/01/26 07:41:33;;;;;;;;;1.33;0.33;;;;;20.94;47.69;102435.56;6362958;22;45296;-75
2024/01/26 07:43:59;;;;;;;;;0.67;0.67;;;;;20.98;47.37;102446.72;6367257;22;45106;-75
2024/01/26 07:46:25;;;;;;;;;3.00;1.00;;;;;21.06;47.82;102464.59;6366422;22;46093;-75
2024/01/26 07:48:50;;;;;;;;;0.67;0.33;;;;;21.00;47.40;102478.34;6366892;22;45497;-75
2024/01/26 07:51:16;;;;;;;;;1.00;0.33;;;;;20.91;47.35;102479.97;6367449;22;45212;-74
2024/01/26 07:53:41;;;;;;;;;0.67;0.67;;;;;21.01;47.17;102503.81;6337851;22;45502;-75
2024/01/26 07:56:06;;;;;;;;;1.00;0.67;;;;;21.00;47.62;102510.09;6366472;22;52353;-75
2024/01/26 07:58:32;;;;;;;;;0.33;0.33;;;;;20.95;47.42;102527.19;6366151;22;45279;-75
2024/01/26 08:00:57;;;;;;;;;0.67;0.67;;;;;20.93;47.30;102528.28;6367183;22;45568;-74
2024/01/26 08:03:23;;;;;;;;;1.00;1.00;;;;;21.06;47.38;102554.56;6366955;22;45385;-75
2024/01/26 08:05:48;;;;;;;;;1.33;1.33;;;;;21.05;47.43;102548.44;6366783;22;45278;-75
2024/01/26 08:08:14;;;;;;;;;2.00;1.00;;;;;21.05;47.83;102572.25;6366467;22;45333;-75
2024/01/26 08:10:39;;;;;;;;;3.00;1.00;;;;;21.05;47.51;102574.09;6366531;22;45345;-75
2024/01/26 08:13:04;;;;;;;;;2.33;1.67;;;;;21.05;47.69;102576.72;6366254;22;50138;-74
2024/01/26 08:15:29;;;;;;;;;1.67;0.67;;;;;21.04;47.88;102578.53;6367046;22;45332;-73
2024/01/26 08:17:55;;;;;;;;;1.67;1.67;;;;;21.04;47.69;102577.69;6363511;22;51714;-74
2024/01/26 08:20:20;;;;;;;;;1.67;1.67;;;;;21.02;47.32;102583.13;6361703;22;45663;-74
2024/01/26 08:22:45;;;;;;;;;1.00;1.00;;;;;21.03;47.56;102611.25;6366216;22;45310;-75
2024/01/26 08:25:11;;;;;;;;;0.00;0.00;;;;;21.00;47.40;102615.94;6366207;22;45651;-74
2024/01/26 08:27:37;;;;;;;;;1.00;1.00;;;;;20.96;47.75;102618.00;6366174;22;45256;-74
2024/01/26 08:30:03;;;;;;;;;0.33;0.33;;;;;20.98;47.43;102620.50;6366152;22;45465;-76
2024/01/26 08:32:29;;;;;;;;;1.00;0.33;;;;;21.03;47.54;102637.72;6365633;22;45514;-74
2024/01/26 08:34:55;;;;;;;;;0.00;0.00;;;;;21.05;47.28;102640.25;6366252;22;45511;-74
2024/01/26 08:37:20;;;;;;;;;0.00;0.00;;;;;20.94;47.25;102634.03;6365099;22;45634;-75
2024/01/26 08:39:46;;;;;;;;;0.00;0.00;;;;;20.95;47.11;102648.91;6365747;22;45327;-74
2024/01/26 08:42:12;;;;;;;;;0.67;0.67;;;;;20.92;46.96;102638.56;6367005;22;45280;-74
2024/01/26 08:44:37;;;;;;;;;1.00;0.67;;;;;20.70;47.47;102621.88;6366793;22;46197;-75
2024/01/26 08:47:03;;;;;;;;;1.33;1.00;;;;;20.37;47.31;102576.09;6367500;22;45419;-76
2024/01/26 08:49:29;;;;;;;;;1.00;1.00;;;;;21.00;47.23;102667.03;6365770;22;45370;-75
2024/01/26 08:51:57;;;;;;;;;0.67;0.67;;;;;21.02;47.44;102669.59;6366798;22;45419;-75
2024/01/26 08:54:23;;;;;;;;;0.33;0.00;;;;;20.71;47.13;102642.06;6367567;22;46339;-75
2024/01/26 08:56:48;;;;;;;;;1.33;0.67;;;;;20.90;47.25;102664.34;6366843;22;45245;-75
2024/01/26 08:59:14;;;;;;;;;1.67;1.67;;;;;20.79;47.68;102644.06;6366988;22;45197;-75
2024/01/26 09:01:39;;;;;;;;;3.33;1.67;;;;;20.78;47.17;102647.69;6367877;22;45447;-75
2024/01/26 09:04:05;;;;;;;;;1.00;1.00;;;;;21.03;47.37;102695.09;6367623;22;46243;-75
2024/01/26 09:06:31;;;;;;;;;0.00;0.00;;;;;21.06;47.37;102692.19;6366750;22;45466;-75
2024/01/26 09:08:57;;;;;;;;;0.00;0.00;;;;;21.06;47.40;102713.38;6367389;22;45399;-76
2024/01/26 09:11:22;;;;;;;;;1.33;1.33;;;;;21.04;47.23;102710.00;6366791;22;45339;-76
2024/01/26 09:13:47;;;;;;;;;0.00;0.00;;;;;21.06;47.10;102710.72;6367347;22;45972;-75
2024/01/26 09:16:13;;;;;;;;;1.67;0.33;;;;;21.05;47.05;102711.72;6367069;22;56879;-75
2024/01/26 09:18:39;;;;;;;;;2.00;0.00;;;;;20.97;47.26;102704.38;6367234;22;52266;-76
2024/01/26 09:21:05;;;;;;;;;0.67;0.67;;;;;21.09;47.23;102734.28;6366009;22;45387;-76
2024/01/26 09:23:30;;;;;;;;;0.33;0.33;;;;;21.11;47.25;102752.69;6367453;22;45816;-75
2024/01/26 09:25:55;;;;;;;;;2.00;2.00;;;;;21.06;46.86;102750.41;6338887;22;45867;-76
2024/01/26 09:28:21;;;;;;;;;0.00;0.00;;;;;21.11;46.95;102757.97;6338718;22;45276;-76
2024/01/26 09:30:46;;;;;;;;;1.00;1.00;;;;;20.93;47.41;102732.88;6338625;22;45565;-75
2024/01/26 09:33:11;;;;;;;;;0.67;0.67;;;;;21.12;46.92;102771.09;6367251;22;45922;-76
2024/01/26 09:35:36;;;;;;;;;0.67;0.67;;;;;21.13;47.22;102771.94;6338580;22;46496;-76
2024/01/26 09:38:02;;;;;;;;;1.00;0.00;;;;;21.01;46.91;102756.09;6338811;22;45256;-75
2024/01/26 09:40:28;;;;;;;;;0.67;0.67;;;;;21.09;47.04;102763.41;6367132;22;45444;-76
2024/01/26 09:42:53;;;;;;;;;1.67;1.00;;;;;21.02;46.74;102770.19;6367792;22;45982;-75
2024/01/26 09:45:20;;;;;;;;;1.00;1.00;;;;;21.02;46.57;102767.53;6366740;22;45297;-75
2024/01/26 09:47:50;;;;;;;;;3.00;1.00;;;;;21.11;46.95;102787.09;6367142;22;45417;-75
2024/01/26 09:50:20;;;;;;;;;0.33;0.00;;;;;21.13;47.09;102804.53;6366785;22;45287;-76
2024/01/26 09:52:46;;;;;;;;;0.67;0.67;;;;;21.01;46.99;102781.69;6366728;22;46201;-76
2024/01/26 09:55:12;;;;;;;;;1.00;1.00;;;;;21.08;46.79;102795.31;6367023;22;45374;-75
2024/01/26 09:57:38;;;;;;;;;0.00;0.00;;;;;21.03;46.90;102785.91;6367688;22;45301;-75
2024/01/26 10:00:07;;;;;;;;;1.67;0.67;;;;;21.10;46.62;102809.25;6367003;22;45671;-75
2024/01/26 10:02:32;;;;;;;;;0.33;0.00;;;;;21.16;46.31;102811.38;6367286;22;45528;-75
2024/01/26 10:04:57;;;;;;;;;0.00;0.00;;;;;21.24;46.43;102816.03;6366745;22;45442;-75
2024/01/26 10:07:23;;;;;;;;;0.00;0.00;;;;;21.24;46.34;102826.63;6366741;22;56350;-75
2024/01/26 10:09:48;;;;;;;;;0.00;0.00;;;;;21.14;46.41;102822.09;6367294;22;45454;-76
2024/01/26 10:12:13;;;;;;;;;1.00;1.00;;;;;21.31;46.47;102846.34;6366885;22;46886;-74
2024/01/26 10:14:39;;;;;;;;;0.00;0.00;;;;;21.35;46.81;102857.50;6364934;22;61065;-75
2024/01/26 10:17:05;;;;;;;;;0.67;0.67;;;;;21.31;46.38;102848.16;6367746;22;45261;-76
2024/01/26 10:19:30;;;;;;;;;0.00;0.00;;;;;21.39;46.74;102858.97;6367237;22;45413;-76
2024/01/26 10:21:57;;;;;;;;;2.67;0.00;;;;;21.29;46.18;102845.63;6366767;22;46019;-75
2024/01/26 10:24:24;;;;;;;;;1.67;1.67;;;;;21.46;46.44;102878.66;6367726;22;45250;-76
2024/01/26 10:26:50;;;;;;;;;1.33;0.00;;;;;21.48;46.78;102882.03;6367129;22;45299;-75
2024/01/26 10:29:16;;;;;;;;;0.67;0.67;;;;;21.50;45.96;102880.09;6366921;22;45467;-75
2024/01/26 10:31:41;;;;;;;;;3.33;0.00;;;;;21.37;46.29;102859.06;6367062;22;46019;-74
2024/01/26 10:34:13;;;;;;;;;0.67;0.67;;;;;21.54;46.47;102908.97;6366880;22;45205;-75
2024/01/26 10:36:43;;;;;;;;;0.67;0.33;;;;;21.29;46.49;102866.78;6367195;22;45270;-75
2024/01/26 10:39:13;;;;;;;;;0.33;0.33;;;;;21.46;46.21;102897.22;6366821;22;45448;-75
2024/01/26 10:41:45;;;;;;;;;1.33;0.00;;;;;21.57;45.93;102909.53;6366435;22;47037;-74
2024/01/26 10:44:11;;;;;;;;;0.00;0.00;;;;;21.50;46.40;102909.22;6366754;22;45424;-74
2024/01/26 10:46:37;;;;;;;;;0.00;0.00;;;;;21.58;46.57;102926.28;6367269;22;45243;-75
2024/01/26 10:49:04;;;;;;;;;0.00;0.00;;;;;21.59;45.91;102930.63;6366775;22;45238;-74
2024/01/26 10:51:31;;;;;;;;;0.67;0.67;;;;;21.54;45.91;102925.72;6366921;22;46309;-75
2024/01/26 10:53:58;;;;;;;;;1.00;0.67;;;;;21.59;45.88;102942.06;6366630;22;45679;-75
2024/01/26 10:56:24;;;;;;;;;0.67;0.67;;;;;21.57;45.80;102935.22;6363420;22;45416;-75
2024/01/26 10:58:49;;;;;;;;;1.33;0.67;;;;;21.62;46.08;102954.22;6363603;22;45240;-75
2024/01/26 11:01:15;;;;;;;;;1.33;0.33;;;;;21.54;45.77;102938.09;6363151;22;45918;-76
2024/01/26 11:03:40;;;;;;;;;1.67;0.67;;;;;21.60;45.60;102953.47;6364174;22;45916;-76
2024/01/26 11:06:08;;;;;;;;;1.67;0.67;;;;;21.60;45.68;102964.91;6363592;22;45679;-75
2024/01/26 11:08:34;;;;;;;;;0.67;0.00;;;;;21.57;46.21;102959.06;6363618;22;45556;-76
2024/01/26 11:10:59;;;;;;;;;1.67;0.67;;;;;21.65;45.52;102972.47;6364334;22;46292;-76
2024/01/26 11:13:26;;;;;;;;;0.67;0.67;;;;;21.37;45.61;102929.72;6363772;22;45503;-76
2024/01/26 11:15:51;;;;;;;;;0.67;0.00;;;;;21.66;45.88;102975.97;6363094;22;45522;-77
2024/01/26 11:18:36;;;;;;;;;1.67;0.00;;;;;21.66;45.66;102981.28;6363773;22;45725;-76